Time;durP1;ratioP1;P1;durP2;ratioP2;P2;SDS_P1;SDS_P2;PMS_P1;PMS_P2;Temp;Humidity;BMP_temperature;BMP_pressure;BME280_temperature;BME280_humidity;BME280_pressure;Samples;Min_cycle;Max_cycle;Signal;HPM_P1;HPM_P2
2023/11/10 00:00:10;;;;;;;4.10;3.47;;;8.50;99.90;;;;;;5034972;28;20061;-63
2023/11/10 00:02:45;;;;;;;5.80;3.85;;;8.50;99.90;;;;;;5026046;28;20149;-61
2023/11/10 00:05:12;;;;;;;5.07;3.47;;;8.50;99.90;;;;;;5027164;28;20049;-61
2023/11/10 00:07:40;;;;;;;3.83;3.50;;;8.50;99.90;;;;;;5031827;28;20090;-63
2023/11/10 00:10:07;;;;;;;5.60;3.33;;;8.50;99.90;;;;;;5049299;28;20048;-64
2023/11/10 00:12:35;;;;;;;3.83;3.38;;;8.50;99.90;;;;;;5048980;28;20036;-64
2023/11/10 00:15:08;;;;;;;5.47;3.13;;;8.50;99.90;;;;;;5048906;28;20098;-62
2023/11/10 00:17:36;;;;;;;5.43;4.10;;;8.50;99.90;;;;;;5052991;28;20048;-63
2023/11/10 00:20:04;;;;;;;4.18;3.75;;;8.50;99.90;;;;;;5052119;28;20045;-60
2023/11/10 00:22:31;;;;;;;4.53;3.35;;;8.50;99.90;;;;;;5049251;28;20048;-60
2023/11/10 00:24:59;;;;;;;5.20;3.22;;;8.50;99.90;;;;;;5051841;28;20124;-68
2023/11/10 00:27:27;;;;;;;5.00;4.38;;;8.50;99.90;;;;;;5053775;28;20486;-61
2023/11/10 00:29:54;;;;;;;4.70;3.67;;;8.50;99.90;;;;;;5055501;28;20033;-61
2023/11/10 00:32:21;;;;;;;6.40;4.45;;;8.50;99.90;;;;;;5051891;28;20045;-66
2023/11/10 00:34:48;;;;;;;5.65;3.92;;;8.50;99.90;;;;;;5036985;28;20103;-61
2023/11/10 00:37:15;;;;;;;6.05;3.55;;;8.50;99.90;;;;;;5051880;28;20099;-61
2023/11/10 00:39:42;;;;;;;10.10;4.68;;;8.50;99.90;;;;;;5033506;28;20385;-63
2023/11/10 00:42:09;;;;;;;12.20;5.35;;;8.60;99.90;;;;;;5054262;28;20051;-67
2023/11/10 00:44:36;;;;;;;7.05;4.30;;;8.60;99.90;;;;;;5049216;28;20056;-60
2023/11/10 00:47:04;;;;;;;5.90;5.30;;;8.60;99.90;;;;;;5049217;28;20106;-62
2023/11/10 00:49:31;;;;;;;5.13;4.63;;;8.60;99.90;;;;;;5054233;28;20037;-61
2023/11/10 00:51:58;;;;;;;4.88;4.38;;;8.60;99.90;;;;;;5015601;28;20057;-64
2023/11/10 00:54:25;;;;;;;7.20;4.00;;;8.60;99.90;;;;;;5051238;28;20044;-61
2023/11/10 00:56:52;;;;;;;5.20;4.40;;;8.60;99.90;;;;;;5050212;28;20128;-61
2023/11/10 00:59:19;;;;;;;6.88;5.07;;;8.50;99.90;;;;;;5045947;28;20106;-64
2023/11/10 01:01:47;;;;;;;7.32;4.32;;;8.60;99.90;;;;;;5047951;28;20399;-62
2023/11/10 01:04:14;;;;;;;4.55;4.15;;;8.60;99.90;;;;;;5032211;28;20151;-61
2023/11/10 01:06:41;;;;;;;6.07;4.43;;;8.60;99.90;;;;;;5050549;28;20053;-61
2023/11/10 01:09:08;;;;;;;3.97;3.58;;;8.60;99.90;;;;;;5048609;28;20460;-63
2023/11/10 01:11:35;;;;;;;3.60;3.28;;;8.60;99.90;;;;;;5032760;28;20048;-62
2023/11/10 01:14:04;;;;;;;6.25;3.20;;;8.60;99.90;;;;;;5042137;28;20545;-61
2023/11/10 01:16:31;;;;;;;4.28;3.53;;;8.60;99.90;;;;;;5049365;28;20120;-62
2023/11/10 01:18:59;;;;;;;3.42;3.10;;;8.60;99.90;;;;;;5032941;28;20049;-64
2023/11/10 01:21:26;;;;;;;3.42;2.83;;;8.60;99.90;;;;;;5051540;28;20037;-62
2023/11/10 01:23:54;;;;;;;3.95;3.08;;;8.60;99.90;;;;;;5033215;28;20049;-63
2023/11/10 01:26:22;;;;;;;4.93;2.60;;;8.60;99.90;;;;;;5049186;28;20099;-60
2023/11/10 01:28:49;;;;;;;3.45;3.15;;;8.60;99.90;;;;;;5052525;28;20033;-63
2023/11/10 01:31:17;;;;;;;7.22;2.75;;;8.60;99.90;;;;;;5047885;28;20187;-61
2023/11/10 01:33:43;;;;;;;6.70;4.35;;;8.60;99.90;;;;;;5050115;28;20052;-62
2023/11/10 01:36:11;;;;;;;7.22;4.30;;;8.60;99.90;;;;;;5050341;28;20040;-62
2023/11/10 01:38:40;;;;;;;11.95;4.55;;;8.60;99.90;;;;;;5048803;28;20043;-61
2023/11/10 01:41:09;;;;;;;9.80;5.85;;;8.60;99.90;;;;;;5051483;28;20518;-60
2023/11/10 01:43:36;;;;;;;8.55;5.18;;;8.60;99.90;;;;;;5047947;28;20041;-63
2023/11/10 01:46:05;;;;;;;5.20;4.72;;;8.60;99.90;;;;;;5032378;28;20076;-61
2023/11/10 01:48:32;;;;;;;6.40;4.80;;;8.60;99.90;;;;;;5047911;28;20143;-61
2023/11/10 01:51:01;;;;;;;5.82;4.25;;;8.60;99.90;;;;;;5047304;28;20060;-63
2023/11/10 01:53:28;;;;;;;8.93;4.78;;;8.60;99.90;;;;;;5052961;28;20495;-61
2023/11/10 01:55:56;;;;;;;5.68;4.00;;;8.60;99.90;;;;;;5046798;28;20043;-65
2023/11/10 01:58:24;;;;;;;5.07;4.25;;;8.60;99.90;;;;;;5033312;28;20045;-62
2023/11/10 02:00:51;;;;;;;5.40;4.88;;;8.60;99.90;;;;;;5052845;28;20037;-63
2023/11/10 02:03:18;;;;;;;4.78;4.38;;;8.60;99.90;;;;;;5053327;28;20387;-61
2023/11/10 02:05:46;;;;;;;5.30;4.47;;;8.60;99.90;;;;;;5039773;28;20057;-62
2023/11/10 02:08:13;;;;;;;7.55;4.82;;;8.70;99.90;;;;;;5053480;28;20041;-62
2023/11/10 02:10:40;;;;;;;5.07;4.35;;;8.70;99.90;;;;;;5054273;28;20045;-61
2023/11/10 02:13:07;;;;;;;5.45;4.13;;;8.60;99.90;;;;;;5057065;28;20151;-64
2023/11/10 02:15:34;;;;;;;4.35;3.90;;;8.60;99.90;;;;;;5051374;28;20065;-62
2023/11/10 02:18:01;;;;;;;6.15;4.63;;;8.70;99.90;;;;;;5033836;28;20051;-63
2023/11/10 02:20:28;;;;;;;6.68;3.45;;;8.70;99.90;;;;;;5060294;28;20043;-61
2023/11/10 02:22:55;;;;;;;6.15;3.58;;;8.60;99.90;;;;;;5047767;28;20659;-61
2023/11/10 02:25:22;;;;;;;4.78;3.25;;;8.70;99.90;;;;;;5052049;28;20037;-61
2023/11/10 02:27:50;;;;;;;4.28;3.50;;;8.70;99.90;;;;;;5039303;28;20037;-61
2023/11/10 02:30:18;;;;;;;7.75;5.40;;;8.70;99.90;;;;;;5052304;28;20084;-62
2023/11/10 02:32:46;;;;;;;4.22;3.83;;;8.60;99.90;;;;;;5061015;28;20072;-61
2023/11/10 02:35:14;;;;;;;7.68;5.07;;;8.60;99.90;;;;;;5050078;28;20096;-63
2023/11/10 02:37:42;;;;;;;9.13;4.47;;;8.60;99.90;;;;;;5055841;28;20036;-61
2023/11/10 02:40:09;;;;;;;8.98;5.07;;;8.60;99.90;;;;;;5054182;28;20045;-61
2023/11/10 02:42:37;;;;;;;6.43;5.22;;;8.60;99.90;;;;;;5051271;28;20052;-62
2023/11/10 02:45:05;;;;;;;8.02;5.35;;;8.70;99.90;;;;;;5042133;28;20045;-62
2023/11/10 02:47:33;;;;;;;9.02;5.65;;;8.60;99.90;;;;;;5053218;28;20323;-63
2023/11/10 02:50:01;;;;;;;10.18;5.75;;;8.70;99.90;;;;;;5049821;28;20033;-64
2023/11/10 02:52:28;;;;;;;8.80;5.05;;;8.60;99.90;;;;;;5054877;28;20420;-61
2023/11/10 02:54:55;;;;;;;7.55;4.32;;;8.60;99.90;;;;;;5054467;28;20045;-64
2023/11/10 02:57:23;;;;;;;5.78;4.47;;;8.70;99.90;;;;;;5028981;28;20628;-64
2023/11/10 02:59:50;;;;;;;6.18;4.05;;;8.60;99.90;;;;;;5043926;28;20102;-64
2023/11/10 03:02:17;;;;;;;5.10;4.05;;;8.60;99.90;;;;;;5051336;28;20037;-64
2023/11/10 03:04:45;;;;;;;4.55;3.47;;;8.70;99.90;;;;;;5051884;28;20045;-63
2023/11/10 03:07:12;;;;;;;2.55;2.35;;;8.70;99.90;;;;;;5023248;28;20044;-62
2023/11/10 03:09:44;;;;;;;4.65;3.83;;;8.70;99.90;;;;;;5032387;28;20041;-62
2023/11/10 03:12:11;;;;;;;4.00;2.90;;;8.70;99.90;;;;;;5047683;28;20045;-60
2023/11/10 03:14:41;;;;;;;5.97;2.75;;;8.70;99.90;;;;;;5048122;28;20728;-62
2023/11/10 03:17:08;;;;;;;;;;;8.70;99.90;;;;;;5050217;28;20060;-61
2023/11/10 03:19:35;;;;;;;4.20;2.47;;;8.70;99.90;;;;;;5051500;28;19967;-64
2023/11/10 03:22:02;;;;;;;4.85;3.78;;;8.70;99.90;;;;;;5051372;28;20041;-64
2023/11/10 03:24:29;;;;;;;6.20;3.67;;;8.70;99.90;;;;;;5049199;28;20041;-63
2023/11/10 03:26:57;;;;;;;7.00;4.57;;;8.70;99.90;;;;;;5031460;28;20037;-61
2023/11/10 03:29:26;;;;;;;7.57;4.38;;;8.70;99.90;;;;;;5056156;28;20041;-60
2023/11/10 03:31:53;;;;;;;8.63;5.07;;;8.70;99.90;;;;;;5050862;28;20044;-60
2023/11/10 03:34:23;;;;;;;7.13;6.45;;;8.70;99.90;;;;;;5051102;28;20044;-62
2023/11/10 03:36:50;;;;;;;10.40;6.40;;;8.70;99.90;;;;;;5052304;28;20056;-63
2023/11/10 03:39:17;;;;;;;7.30;6.57;;;8.60;99.90;;;;;;5055238;28;20052;-65
2023/11/10 03:41:44;;;;;;;12.90;8.38;;;8.60;99.90;;;;;;5033412;28;20144;-62
2023/11/10 03:44:12;;;;;;;9.95;8.43;;;8.60;99.90;;;;;;5050242;28;20049;-61
2023/11/10 03:46:39;;;;;;;11.80;7.50;;;8.60;99.90;;;;;;5054059;28;20430;-66
2023/11/10 03:49:07;;;;;;;8.57;7.68;;;8.60;99.90;;;;;;5050627;28;20041;-61
2023/11/10 03:51:34;;;;;;;8.77;7.15;;;8.60;99.90;;;;;;5050394;28;20164;-61
2023/11/10 03:54:02;;;;;;;8.43;7.30;;;8.60;99.90;;;;;;5052694;28;20068;-65
2023/11/10 03:56:31;;;;;;;12.02;7.75;;;8.60;99.90;;;;;;5048689;28;20044;-64
2023/11/10 03:58:58;;;;;;;15.27;8.77;;;8.60;99.90;;;;;;5054258;28;20063;-63
2023/11/10 04:01:25;;;;;;;11.82;8.98;;;8.60;99.90;;;;;;5052011;28;20055;-64
2023/11/10 04:03:52;;;;;;;11.68;8.40;;;8.60;99.90;;;;;;5057559;28;20044;-61
2023/11/10 04:06:19;;;;;;;11.93;6.63;;;8.60;99.90;;;;;;5049884;28;20044;-61
2023/11/10 04:09:01;;;;;;;9.15;7.32;;;8.60;99.90;;;;;;5045979;28;20119;-64
2023/11/10 04:11:29;;;;;;;11.68;6.50;;;8.60;99.90;;;;;;5046743;28;20041;-62
2023/11/10 04:13:56;;;;;;;10.50;6.38;;;8.60;99.90;;;;;;5045226;28;20048;-62
2023/11/10 04:16:24;;;;;;;9.50;6.90;;;8.60;99.90;;;;;;5053676;28;20040;-61
2023/11/10 04:18:53;;;;;;;9.85;7.95;;;8.60;99.90;;;;;;5048213;28;20754;-61
2023/11/10 04:21:24;;;;;;;8.40;6.55;;;8.60;99.90;;;;;;5053839;28;20033;-63
2023/11/10 04:23:51;;;;;;;9.80;8.75;;;8.60;99.90;;;;;;5056065;28;20505;-60
2023/11/10 04:26:20;;;;;;;11.38;7.50;;;8.70;99.90;;;;;;5052107;28;20041;-61
2023/11/10 04:28:47;;;;;;;9.98;6.80;;;8.70;99.90;;;;;;5052834;28;20091;-66
2023/11/10 04:31:16;;;;;;;9.85;6.45;;;8.70;99.90;;;;;;5050811;28;20062;-60
2023/11/10 04:33:43;;;;;;;14.18;7.07;;;8.70;99.90;;;;;;5051374;28;20045;-60
2023/11/10 04:36:12;;;;;;;10.23;7.18;;;8.60;99.90;;;;;;5054462;28;20053;-61
2023/11/10 04:38:47;;;;;;;13.52;8.30;;;8.60;99.90;;;;;;5048825;28;20044;-61
2023/11/10 04:41:15;;;;;;;13.88;9.50;;;8.60;99.90;;;;;;5052467;28;20040;-61
2023/11/10 04:43:42;;;;;;;11.65;7.43;;;8.60;99.90;;;;;;5054133;28;20037;-63
2023/11/10 04:46:09;;;;;;;11.70;7.45;;;8.60;99.90;;;;;;5032279;28;21330;-63
2023/11/10 04:48:36;;;;;;;13.85;8.13;;;8.60;99.90;;;;;;5054033;28;20144;-61
2023/11/10 04:51:03;;;;;;;10.00;7.95;;;8.60;99.90;;;;;;5042516;28;20037;-64
2023/11/10 04:53:30;;;;;;;12.60;7.90;;;8.60;99.90;;;;;;5048580;28;20595;-61
2023/11/10 04:55:57;;;;;;;7.07;6.38;;;8.60;99.90;;;;;;5043367;28;20442;-68
2023/11/10 04:58:24;;;;;;;10.00;7.38;;;8.60;99.90;;;;;;5051249;28;20095;-60
2023/11/10 05:00:51;;;;;;;12.85;6.93;;;8.60;99.90;;;;;;5055922;28;20391;-62
2023/11/10 05:03:18;;;;;;;10.88;7.80;;;8.50;99.90;;;;;;5054394;28;20060;-61
2023/11/10 05:05:46;;;;;;;12.27;6.93;;;8.50;99.90;;;;;;5038257;28;20049;-61
2023/11/10 05:08:13;;;;;;;8.50;6.47;;;8.50;99.90;;;;;;5054980;28;20048;-60
2023/11/10 05:10:40;;;;;;;11.98;6.75;;;8.50;99.90;;;;;;5050201;28;20052;-60
2023/11/10 05:13:07;;;;;;;10.02;6.82;;;8.50;99.90;;;;;;5049713;28;20044;-60
2023/11/10 05:15:37;;;;;;;9.73;6.45;;;8.50;99.90;;;;;;5054012;28;20063;-59
2023/11/10 05:18:05;;;;;;;11.63;6.03;;;8.50;99.90;;;;;;5036094;28;20037;-65
2023/11/10 05:20:32;;;;;;;8.57;6.03;;;8.50;99.90;;;;;;5053093;28;20533;-66
2023/11/10 05:22:59;;;;;;;10.63;7.18;;;8.50;99.90;;;;;;5044593;28;20398;-61
2023/11/10 05:25:26;;;;;;;10.20;6.47;;;8.50;99.90;;;;;;5041286;28;20029;-61
2023/11/10 05:27:54;;;;;;;13.98;6.47;;;8.50;99.90;;;;;;5048197;28;20395;-61
2023/11/10 05:30:24;;;;;;;8.93;6.05;;;8.50;99.90;;;;;;5038499;28;20048;-61
2023/11/10 05:32:51;;;;;;;14.43;5.82;;;8.50;99.90;;;;;;5042487;28;20044;-64
2023/11/10 05:35:18;;;;;;;11.32;7.47;;;8.50;99.90;;;;;;5048997;28;20472;-60
2023/11/10 05:37:45;;;;;;;17.13;8.70;;;8.50;99.90;;;;;;5046293;28;20045;-61
2023/11/10 05:40:14;;;;;;;11.55;5.68;;;8.50;99.90;;;;;;5048312;28;20098;-61
2023/11/10 05:42:41;;;;;;;10.00;6.55;;;8.50;99.90;;;;;;5032973;28;20060;-61
2023/11/10 05:45:09;;;;;;;8.32;5.75;;;8.50;99.90;;;;;;5057396;28;20044;-60
2023/11/10 05:47:36;;;;;;;7.53;5.10;;;8.50;99.90;;;;;;5063313;28;20045;-61
2023/11/10 05:50:03;;;;;;;11.98;7.38;;;8.50;99.90;;;;;;5056587;28;20526;-62
2023/11/10 05:52:31;;;;;;;12.18;6.25;;;8.50;99.90;;;;;;5056212;28;20086;-63
2023/11/10 05:54:58;;;;;;;9.45;6.63;;;8.50;99.90;;;;;;5061455;28;20063;-68
2023/11/10 05:57:26;;;;;;;8.10;7.00;;;8.40;99.90;;;;;;5055292;28;20044;-61
2023/11/10 05:59:53;;;;;;;12.43;6.40;;;8.50;99.90;;;;;;5052303;28;20041;-62
2023/11/10 06:02:20;;;;;;;12.38;6.15;;;8.50;99.90;;;;;;5040973;28;20049;-64
2023/11/10 06:04:48;;;;;;;13.05;5.70;;;8.50;99.90;;;;;;5059031;28;20126;-61
2023/11/10 06:07:16;;;;;;;11.55;5.63;;;8.40;99.90;;;;;;5057167;28;20037;-62
2023/11/10 06:09:43;;;;;;;10.40;5.72;;;8.40;99.90;;;;;;5056680;28;20056;-67
2023/11/10 06:12:12;;;;;;;8.50;5.28;;;8.40;99.90;;;;;;5058493;28;20061;-62
2023/11/10 06:14:42;;;;;;;10.10;5.25;;;8.40;99.90;;;;;;5054292;28;20388;-67
2023/11/10 06:17:09;;;;;;;10.48;5.95;;;8.40;99.90;;;;;;5039993;28;20426;-61
2023/11/10 06:19:36;;;;;;;16.75;5.07;;;8.40;99.90;;;;;;5054972;28;20673;-61
2023/11/10 06:22:03;;;;;;;9.30;7.13;;;8.40;99.90;;;;;;5056351;28;20045;-62
2023/11/10 06:24:30;;;;;;;11.88;5.85;;;8.40;99.90;;;;;;5056731;28;20037;-63
2023/11/10 06:26:57;;;;;;;8.98;6.30;;;8.40;99.90;;;;;;5049408;28;20124;-60
2023/11/10 06:29:24;;;;;;;13.10;5.75;;;8.40;99.90;;;;;;5056008;28;20084;-60
2023/11/10 06:31:53;;;;;;;10.27;4.60;;;8.40;99.90;;;;;;5054271;28;20044;-64
2023/11/10 06:34:22;;;;;;;15.43;5.17;;;8.40;99.90;;;;;;5055279;28;20075;-63
2023/11/10 06:36:50;;;;;;;10.63;4.95;;;8.40;99.90;;;;;;5048078;28;20289;-65
2023/11/10 06:39:18;;;;;;;11.82;5.75;;;8.40;99.90;;;;;;5059564;28;20048;-61
2023/11/10 06:41:45;;;;;;;11.43;5.75;;;8.40;99.90;;;;;;5051185;28;20475;-63
2023/11/10 06:44:18;;;;;;;7.55;4.72;;;8.40;99.90;;;;;;5054286;28;20038;-60
2023/11/10 06:46:46;;;;;;;13.27;6.07;;;8.40;99.90;;;;;;5054934;28;20086;-64
2023/11/10 06:49:14;;;;;;;11.10;5.05;;;8.40;99.90;;;;;;5048969;28;20041;-61
2023/11/10 06:51:41;;;;;;;9.05;5.15;;;8.40;99.90;;;;;;5053971;28;20043;-64
2023/11/10 06:54:08;;;;;;;10.93;5.60;;;8.40;99.90;;;;;;5048326;28;20033;-62
2023/11/10 06:56:35;;;;;;;16.95;5.18;;;8.40;99.90;;;;;;5034566;28;20037;-60
2023/11/10 06:59:02;;;;;;;7.35;4.57;;;8.40;99.90;;;;;;5042067;28;20482;-66
2023/11/10 07:01:29;;;;;;;9.40;5.95;;;8.40;99.90;;;;;;5046426;28;20140;-60
2023/11/10 07:03:56;;;;;;;9.77;5.85;;;8.40;99.90;;;;;;5049341;28;20045;-61
2023/11/10 07:06:23;;;;;;;10.93;5.00;;;8.40;99.90;;;;;;5057012;28;20057;-61
2023/11/10 07:08:50;;;;;;;9.02;5.13;;;8.30;99.90;;;;;;5045152;28;20041;-63
2023/11/10 07:11:17;;;;;;;8.85;5.07;;;8.30;99.90;;;;;;5053316;28;20402;-61
2023/11/10 07:13:45;;;;;;;14.32;4.88;;;8.30;99.90;;;;;;5047276;28;20044;-62
2023/11/10 07:16:14;;;;;;;6.43;4.50;;;8.30;99.90;;;;;;5048852;28;20041;-63
2023/11/10 07:18:41;;;;;;;9.48;4.65;;;8.40;99.90;;;;;;5054290;28;20110;-60
2023/11/10 07:21:10;;;;;;;10.27;4.82;;;8.40;99.90;;;;;;5050527;28;20029;-62
2023/11/10 07:23:37;;;;;;;16.42;5.07;;;8.40;99.90;;;;;;5050630;28;20033;-61
2023/11/10 07:26:04;;;;;;;6.35;4.15;;;8.40;99.90;;;;;;5054953;28;20040;-62
2023/11/10 07:28:31;;;;;;;6.25;4.03;;;8.40;99.90;;;;;;5046901;28;20041;-66
2023/11/10 07:30:58;;;;;;;8.98;4.10;;;8.40;99.90;;;;;;5052987;28;20033;-61
2023/11/10 07:33:25;;;;;;;10.50;4.88;;;8.40;99.90;;;;;;5050469;28;20490;-59
2023/11/10 07:35:53;;;;;;;6.50;4.63;;;8.40;99.90;;;;;;5051808;28;20128;-62
2023/11/10 07:38:20;;;;;;;7.95;4.78;;;8.40;99.90;;;;;;5054153;28;20706;-60
2023/11/10 07:40:47;;;;;;;12.30;6.30;;;8.40;99.90;;;;;;5050683;28;20072;-61
2023/11/10 07:43:17;;;;;;;9.32;4.55;;;8.50;99.90;;;;;;5054877;28;20075;-61
2023/11/10 07:45:45;;;;;;;16.85;5.03;;;8.50;99.90;;;;;;5045940;28;20388;-63
2023/11/10 07:48:13;;;;;;;7.75;3.80;;;8.50;99.90;;;;;;5049995;28;20048;-62
2023/11/10 07:50:41;;;;;;;8.73;4.28;;;8.50;99.90;;;;;;5053792;28;20110;-63
2023/11/10 07:53:08;;;;;;;4.80;4.35;;;8.50;99.90;;;;;;5048630;28;20107;-62
2023/11/10 07:55:35;;;;;;;11.85;5.78;;;8.40;99.90;;;;;;5051693;28;20091;-60
2023/11/10 07:58:03;;;;;;;6.68;4.28;;;8.40;99.90;;;;;;5052998;28;20044;-62
2023/11/10 08:00:30;;;;;;;7.28;4.20;;;8.40;99.90;;;;;;5050875;28;20052;-60
2023/11/10 08:02:58;;;;;;;7.10;4.00;;;8.40;99.90;;;;;;5054789;28;20726;-60
2023/11/10 08:05:25;;;;;;;8.18;3.78;;;8.40;99.90;;;;;;5047582;28;20186;-60
2023/11/10 08:07:52;;;;;;;7.43;3.75;;;8.40;99.90;;;;;;5047349;28;20049;-61
2023/11/10 08:10:20;;;;;;;11.10;4.43;;;8.40;99.90;;;;;;5052705;28;20079;-61
2023/11/10 08:12:47;;;;;;;9.23;4.72;;;8.40;99.90;;;;;;5052113;28;20072;-60
2023/11/10 08:15:14;;;;;;;21.55;5.28;;;8.40;99.90;;;;;;5052087;28;20053;-62
2023/11/10 08:17:42;;;;;;;6.10;4.03;;;8.40;99.90;;;;;;5050310;28;20059;-62
2023/11/10 08:20:10;;;;;;;10.10;4.43;;;8.40;99.90;;;;;;5048277;28;20095;-61
2023/11/10 08:22:37;;;;;;;8.73;4.78;;;8.40;99.90;;;;;;5054074;28;20037;-60
2023/11/10 08:25:05;;;;;;;11.15;4.25;;;8.50;99.90;;;;;;5051142;28;20079;-63
2023/11/10 08:27:33;;;;;;;12.63;4.90;;;8.50;99.90;;;;;;5055990;28;20044;-61
2023/11/10 08:30:00;;;;;;;8.63;5.03;;;8.50;99.90;;;;;;5053505;28;20036;-63
2023/11/10 08:32:28;;;;;;;7.43;4.40;;;8.60;99.90;;;;;;5052294;28;20040;-64
2023/11/10 08:34:57;;;;;;;8.43;4.75;;;8.60;99.90;;;;;;5049763;28;20045;-60
2023/11/10 08:37:24;;;;;;;9.10;4.93;;;8.60;99.90;;;;;;5047325;28;20041;-61
2023/11/10 08:39:51;;;;;;;8.65;5.28;;;8.60;99.90;;;;;;5048680;28;20045;-61
2023/11/10 08:42:18;;;;;;;13.93;4.90;;;8.60;99.90;;;;;;5055552;28;20102;-60
2023/11/10 08:44:47;;;;;;;10.05;6.03;;;8.70;99.90;;;;;;5048672;28;20047;-60
2023/11/10 08:47:14;;;;;;;8.60;6.53;;;8.70;99.90;;;;;;5030485;28;20048;-63
2023/11/10 08:49:45;;;;;;;15.75;5.88;;;8.70;99.90;;;;;;5045315;28;20400;-60
2023/11/10 08:52:14;;;;;;;9.80;6.03;;;8.70;99.90;;;;;;5045829;28;20035;-60
2023/11/10 08:54:41;;;;;;;11.88;5.53;;;8.60;99.90;;;;;;5051038;28;20045;-61
2023/11/10 08:57:08;;;;;;;12.10;5.15;;;8.60;99.90;;;;;;5050659;28;20041;-60
2023/11/10 08:59:35;;;;;;;13.60;5.97;;;8.70;99.90;;;;;;5047127;28;20403;-68
2023/11/10 09:02:03;;;;;;;11.15;6.07;;;8.70;99.90;;;;;;5049387;28;20068;-61
2023/11/10 09:04:30;;;;;;;8.40;6.05;;;8.60;99.90;;;;;;5046937;28;20045;-61
2023/11/10 09:06:57;;;;;;;16.67;7.07;;;8.60;99.90;;;;;;5055609;28;20048;-60
2023/11/10 09:09:24;;;;;;;12.77;6.45;;;8.70;99.90;;;;;;5050981;28;20032;-60
2023/11/10 09:11:51;;;;;;;9.25;5.43;;;8.70;99.90;;;;;;5054654;28;20045;-60
2023/11/10 09:14:18;;;;;;;12.52;6.18;;;8.70;99.90;;;;;;5047911;28;20120;-62
2023/11/10 09:16:45;;;;;;;9.35;5.80;;;8.70;99.90;;;;;;5054233;28;20051;-61
2023/11/10 09:19:13;;;;;;;9.48;5.40;;;8.80;99.90;;;;;;5054549;28;20495;-60
2023/11/10 09:21:40;;;;;;;10.20;5.45;;;8.90;99.90;;;;;;5048815;28;20072;-60
2023/11/10 09:24:07;;;;;;;13.93;7.18;;;8.90;99.90;;;;;;5053547;28;20128;-60
2023/11/10 09:26:36;;;;;;;7.38;4.70;;;8.90;99.90;;;;;;5047590;28;20131;-62
2023/11/10 09:29:05;;;;;;;19.45;5.32;;;9.00;99.90;;;;;;5051226;28;20033;-61
2023/11/10 09:31:32;;;;;;;9.00;5.75;;;9.00;99.90;;;;;;5053258;28;20490;-61
2023/11/10 09:33:59;;;;;;;10.57;5.15;;;9.00;99.90;;;;;;5050890;28;20059;-61
2023/11/10 09:36:29;;;;;;;9.05;5.47;;;9.00;99.90;;;;;;5056092;28;20084;-60
2023/11/10 09:38:56;;;;;;;10.20;5.60;;;9.10;99.90;;;;;;5053010;28;20033;-62
2023/11/10 09:41:27;;;;;;;8.93;5.97;;;9.10;99.90;;;;;;5049991;28;20111;-60
2023/11/10 09:43:55;;;;;;;8.88;5.13;;;9.10;99.90;;;;;;5048721;28;20067;-60
2023/11/10 09:46:23;;;;;;;8.50;4.78;;;9.10;99.90;;;;;;5053962;28;20479;-60
2023/11/10 09:48:53;;;;;;;5.65;4.93;;;9.10;99.90;;;;;;5051166;28;20064;-60
2023/11/10 09:51:22;;;;;;;;;;;9.10;99.90;;;;;;5047757;28;20197;-63
2023/11/10 09:53:53;;;;;;;8.80;4.95;;;9.10;99.90;;;;;;5049040;28;19920;-62
2023/11/10 09:56:21;;;;;;;6.82;4.80;;;9.10;99.90;;;;;;5054486;28;20060;-62
2023/11/10 09:58:50;;;;;;;6.03;5.32;;;9.10;99.90;;;;;;5042270;28;20095;-61
2023/11/10 10:01:18;;;;;;;9.43;5.35;;;9.10;99.90;;;;;;5053172;28;20053;-62
2023/11/10 10:03:45;;;;;;;8.27;4.47;;;9.10;99.90;;;;;;5048913;28;20052;-60
2023/11/10 10:06:17;;;;;;;10.35;4.20;;;9.10;99.90;;;;;;5047205;28;20136;-64
2023/11/10 10:08:44;;;;;;;5.63;3.75;;;9.10;99.90;;;;;;5053434;28;20041;-60
2023/11/10 10:11:13;;;;;;;7.97;4.25;;;9.10;99.90;;;;;;5030464;28;20835;-64
2023/11/10 10:13:41;;;;;;;5.20;4.68;;;9.10;99.90;;;;;;5050998;28;20051;-60
2023/11/10 10:16:10;;;;;;;8.43;5.13;;;9.20;99.90;;;;;;5051285;28;20052;-61
2023/11/10 10:18:38;;;;;;;7.38;4.20;;;9.10;99.90;;;;;;5049748;28;20051;-61
2023/11/10 10:21:05;;;;;;;8.88;5.45;;;9.10;99.90;;;;;;5051202;28;20036;-64
2023/11/10 10:23:33;;;;;;;6.28;4.20;;;9.10;99.90;;;;;;5051174;28;20041;-61
2023/11/10 10:26:04;;;;;;;17.98;6.00;;;9.20;99.90;;;;;;5049924;28;20041;-63
2023/11/10 10:28:31;;;;;;;5.55;3.80;;;9.20;99.90;;;;;;5050523;28;20697;-61
2023/11/10 10:30:58;;;;;;;5.68;4.13;;;9.20;99.90;;;;;;5052461;28;20395;-60
2023/11/10 10:33:26;;;;;;;6.47;4.47;;;9.20;99.90;;;;;;5054538;28;20037;-62
2023/11/10 10:35:53;;;;;;;4.75;3.85;;;9.20;99.90;;;;;;5053812;28;20045;-62
2023/11/10 10:38:22;;;;;;;8.30;4.30;;;9.30;99.90;;;;;;5057238;28;20098;-61
2023/11/10 10:40:58;;;;;;;6.55;4.07;;;9.30;99.90;;;;;;5053706;28;20045;-69
2023/11/10 10:43:25;;;;;;;6.50;4.25;;;9.30;99.90;;;;;;5050157;28;20486;-63
2023/11/10 10:45:53;;;;;;;6.97;5.00;;;9.30;99.90;;;;;;5054511;28;20045;-63
2023/11/10 10:48:21;;;;;;;5.75;4.20;;;9.40;99.90;;;;;;5032842;28;20474;-61
2023/11/10 10:50:49;;;;;;;5.40;4.38;;;9.40;99.90;;;;;;5056305;28;20479;-69
2023/11/10 10:53:17;;;;;;;4.80;4.30;;;9.40;99.90;;;;;;5053803;28;20106;-62
2023/11/10 10:55:50;;;;;;;4.55;4.15;;;9.40;99.90;;;;;;5049038;28;20481;-62
2023/11/10 10:58:23;;;;;;;7.80;4.88;;;9.40;99.90;;;;;;5053329;28;20037;-61
2023/11/10 11:00:50;;;;;;;12.10;6.35;;;9.30;99.90;;;;;;5049134;28;20052;-67
2023/11/10 11:03:28;;;;;;;7.53;5.25;;;9.30;99.90;;;;;;5054463;28;20529;-61
2023/11/10 11:06:24;;;;;;;5.72;5.18;;;9.30;99.90;;;;;;5048741;28;20067;-68
2023/11/10 11:09:28;;;;;;;7.13;4.40;;;9.30;99.90;;;;;;5043928;28;20487;-61
2023/11/10 11:12:17;;;;;;;5.35;4.28;;;9.20;99.90;;;;;;5054372;28;20500;-60
2023/11/10 11:14:45;;;;;;;4.70;4.25;;;9.20;99.90;;;;;;5041690;28;20095;-61
2023/11/10 11:17:18;;;;;;;6.72;5.32;;;9.20;99.90;;;;;;5046771;28;20052;-60
2023/11/10 11:19:45;;;;;;;5.57;5.07;;;9.20;99.90;;;;;;5053370;28;20052;-64
2023/11/10 11:22:13;;;;;;;4.50;4.10;;;9.20;99.90;;;;;;5049079;28;20043;-60
2023/11/10 11:24:44;;;;;;;7.80;5.80;;;9.20;99.90;;;;;;5057564;28;20047;-62
2023/11/10 11:27:22;;;;;;;5.30;4.80;;;9.20;99.90;;;;;;5053713;28;20092;-67
2023/11/10 11:29:55;;;;;;;9.05;6.38;;;9.20;99.90;;;;;;5054481;28;20426;-60
2023/11/10 11:32:25;;;;;;;6.50;5.25;;;9.20;99.90;;;;;;5055549;28;20136;-65
2023/11/10 11:34:53;;;;;;;7.57;5.03;;;9.20;99.90;;;;;;5051909;28;20048;-61
2023/11/10 11:37:20;;;;;;;5.85;5.25;;;9.20;99.90;;;;;;5054385;28;20043;-62
2023/11/10 11:39:53;;;;;;;5.53;4.95;;;9.20;99.90;;;;;;5058459;28;20455;-60
2023/11/10 11:42:22;;;;;;;6.60;5.90;;;9.20;99.90;;;;;;5047506;28;20049;-62
2023/11/10 11:44:58;;;;;;;9.93;6.22;;;9.20;99.90;;;;;;5051099;28;20056;-63
2023/11/10 11:47:31;;;;;;;7.70;6.47;;;9.20;99.90;;;;;;5050295;28;20033;-60
2023/11/10 11:49:59;;;;;;;8.70;6.20;;;9.20;99.90;;;;;;5054018;28;20044;-61
2023/11/10 11:52:26;;;;;;;6.40;5.80;;;9.20;99.90;;;;;;5055171;28;20040;-62
2023/11/10 11:54:54;;;;;;;8.20;5.75;;;9.20;99.90;;;;;;5053819;28;20045;-62
2023/11/10 11:57:24;;;;;;;4.50;4.00;;;9.20;99.90;;;;;;5055814;28;20045;-65
2023/11/10 11:59:51;;;;;;;8.07;5.57;;;9.10;99.90;;;;;;5042895;28;20099;-63
2023/11/10 12:02:19;;;;;;;5.28;4.78;;;9.20;99.90;;;;;;5051222;28;20446;-62
2023/11/10 12:04:46;;;;;;;6.75;5.70;;;9.20;99.90;;;;;;5051373;28;20041;-60
2023/11/10 12:07:16;;;;;;;5.97;5.40;;;9.20;99.90;;;;;;5055173;28;20033;-60
2023/11/10 12:09:43;;;;;;;7.50;5.53;;;9.10;99.90;;;;;;5057591;28;20106;-61
2023/11/10 12:12:10;;;;;;;6.35;5.28;;;9.20;99.90;;;;;;5053294;28;20047;-60
2023/11/10 12:14:37;;;;;;;7.40;6.70;;;9.10;99.90;;;;;;5041304;28;20060;-60
2023/11/10 12:17:05;;;;;;;6.25;5.72;;;9.20;99.90;;;;;;5054579;28;20040;-64
2023/11/10 12:19:33;;;;;;;6.35;5.75;;;9.20;99.90;;;;;;5052697;28;20048;-62
2023/11/10 12:22:00;;;;;;;6.63;5.65;;;9.20;99.90;;;;;;5050398;28;20044;-61
2023/11/10 12:24:29;;;;;;;6.78;6.00;;;9.10;99.90;;;;;;5048068;28;20041;-60
2023/11/10 12:26:59;;;;;;;5.93;5.22;;;9.20;99.90;;;;;;5049160;28;20025;-60
2023/11/10 12:29:29;;;;;;;8.35;5.82;;;9.20;99.90;;;;;;5054509;28;20040;-61
2023/11/10 12:31:57;;;;;;;9.00;6.63;;;9.20;99.90;;;;;;5050995;28;20051;-60
2023/11/10 12:34:27;;;;;;;6.00;5.38;;;9.20;99.90;;;;;;5049526;28;20088;-63
2023/11/10 12:36:55;;;;;;;;;;;9.20;99.90;;;;;;5058756;28;20128;-60
2023/11/10 12:39:22;;;;;;;8.20;7.40;;;9.20;99.90;;;;;;5047610;28;19925;-60
2023/11/10 12:41:51;;;;;;;7.07;6.10;;;9.20;99.90;;;;;;5049753;28;20132;-64
2023/11/10 12:44:20;;;;;;;10.13;6.80;;;9.20;99.90;;;;;;5045036;28;20609;-60
2023/11/10 12:47:06;;;;;;;8.40;7.60;;;9.20;99.90;;;;;;5060688;28;20498;-61
2023/11/10 12:49:33;;;;;;;9.20;7.88;;;9.20;99.90;;;;;;5050829;28;20037;-60
2023/11/10 12:52:09;;;;;;;7.53;6.80;;;9.20;99.90;;;;;;5052176;28;20063;-64
2023/11/10 12:54:41;;;;;;;10.02;6.13;;;9.10;99.90;;;;;;5047861;28;20509;-60
2023/11/10 12:57:09;;;;;;;8.50;7.70;;;9.10;99.90;;;;;;5047466;28;20461;-61
2023/11/10 12:59:36;;;;;;;9.90;6.47;;;9.20;99.90;;;;;;5048514;28;20040;-59